createdAt,value
2018-08-30T00:02:09.777Z,21.50
2018-08-30T00:04:38.769Z,21.50
2018-08-30T00:07:07.782Z,21.60
2018-08-30T00:09:36.787Z,21.50
2018-08-30T00:12:05.837Z,21.50
2018-08-30T00:14:35.037Z,21.50
2018-08-30T00:17:04.173Z,21.50
2018-08-30T00:19:33.158Z,21.50
2018-08-30T00:22:02.336Z,21.50
2018-08-30T00:24:31.354Z,21.50
2018-08-30T00:27:00.370Z,21.40
2018-08-30T00:29:29.362Z,21.40
2018-08-30T00:31:58.435Z,21.40
2018-08-30T00:34:27.448Z,21.40
2018-08-30T00:36:56.429Z,21.40
2018-08-30T00:39:25.430Z,21.40
2018-08-30T00:41:54.456Z,21.40
2018-08-30T00:44:23.479Z,21.40
2018-08-30T00:46:52.533Z,21.30
2018-08-30T00:49:21.504Z,21.30
2018-08-30T00:51:50.498Z,21.30
2018-08-30T00:54:19.489Z,21.30
2018-08-30T00:56:48.501Z,21.30
2018-08-30T00:59:17.501Z,21.30
2018-08-30T01:01:46.553Z,21.30
2018-08-30T01:04:15.541Z,21.30
2018-08-30T01:06:44.534Z,21.30
2018-08-30T01:09:13.526Z,21.30
2018-08-30T01:11:42.512Z,21.30
2018-08-30T01:14:11.609Z,21.40
2018-08-30T01:16:40.686Z,21.30
2018-08-30T01:19:09.686Z,21.30
2018-08-30T01:21:39.420Z,21.30
2018-08-30T01:24:08.437Z,21.20
2018-08-30T01:26:37.417Z,21.20
2018-08-30T01:29:06.530Z,21.20
2018-08-30T01:31:35.518Z,21.20
2018-08-30T01:34:04.852Z,21.20
2018-08-30T01:36:33.857Z,21.20
2018-08-30T01:39:02.927Z,21.20
2018-08-30T01:41:31.923Z,21.20
2018-08-30T01:44:00.920Z,21.20
2018-08-30T01:46:30.249Z,21.10
2018-08-30T01:48:59.305Z,21.10
2018-08-30T01:51:28.329Z,21.00
2018-08-30T01:53:57.407Z,21.00
2018-08-30T01:56:26.512Z,21.00
2018-08-30T01:58:55.516Z,20.90
2018-08-30T02:01:24.487Z,20.90
2018-08-30T02:03:53.509Z,20.90
2018-08-30T02:06:23.707Z,20.80
2018-08-30T02:08:52.697Z,20.80
2018-08-30T02:11:21.665Z,20.80
2018-08-30T02:13:50.657Z,20.70
2018-08-30T02:16:19.684Z,20.60
2018-08-30T02:18:48.690Z,20.50
2018-08-30T02:21:17.769Z,20.50
2018-08-30T02:23:46.790Z,20.50
2018-08-30T02:26:15.861Z,20.50
2018-08-30T02:28:44.951Z,20.40
2018-08-30T02:31:13.949Z,20.40
2018-08-30T02:33:42.943Z,20.40
2018-08-30T02:36:11.933Z,20.40
2018-08-30T02:38:40.989Z,20.30
2018-08-30T02:41:10.185Z,20.30
2018-08-30T02:43:39.173Z,20.30
2018-08-30T02:46:08.174Z,20.20
2018-08-30T02:48:37.166Z,20.20
2018-08-30T02:51:06.168Z,20.10
2018-08-30T02:53:35.165Z,20.10
2018-08-30T02:56:04.152Z,20.10
2018-08-30T02:58:33.140Z,20.10
2018-08-30T03:01:02.138Z,20.10
2018-08-30T03:03:31.124Z,20.00
2018-08-30T03:06:00.177Z,19.90
2018-08-30T03:08:29.160Z,19.90
2018-08-30T03:10:58.156Z,19.90
2018-08-30T03:13:28.989Z,19.90
2018-08-30T03:15:58.060Z,19.80
2018-08-30T03:18:27.042Z,19.80
2018-08-30T03:21:00.689Z,19.70
2018-08-30T03:23:34.248Z,19.70
2018-08-30T03:26:04.737Z,19.60
2018-08-30T03:28:33.710Z,19.60
2018-08-30T03:31:10.409Z,19.60
2018-08-30T03:33:39.841Z,19.50
2018-08-30T03:36:08.842Z,19.50
2018-08-30T03:38:51.127Z,19.50
2018-08-30T03:41:21.001Z,19.50
2018-08-30T03:43:49.979Z,19.40
2018-08-30T03:46:24.886Z,19.40
2018-08-30T03:48:54.674Z,19.40
2018-08-30T03:51:24.287Z,19.40
2018-08-30T03:53:53.229Z,19.40
2018-08-30T03:56:22.227Z,19.40
2018-08-30T03:58:51.229Z,19.40
2018-08-30T04:01:20.228Z,19.40
2018-08-30T04:03:50.537Z,19.30
2018-08-30T04:06:19.876Z,19.30
2018-08-30T04:08:49.002Z,19.40
2018-08-30T04:11:18.015Z,19.30
2018-08-30T04:13:47.022Z,19.30
2018-08-30T04:16:16.067Z,19.30
2018-08-30T04:18:45.110Z,19.30
2018-08-30T04:21:14.104Z,19.20
2018-08-30T04:23:43.081Z,19.20
2018-08-30T04:26:12.059Z,19.20
2018-08-30T04:28:46.012Z,19.30
2018-08-30T04:31:15.004Z,19.20
2018-08-30T04:33:43.995Z,19.20
2018-08-30T04:36:13.278Z,19.10
2018-08-30T04:38:42.264Z,19.10
2018-08-30T04:41:11.246Z,19.10
2018-08-30T04:43:40.258Z,19.10
2018-08-30T04:46:10.938Z,19.10
2018-08-30T04:48:43.636Z,19.10
2018-08-30T04:51:13.099Z,19.10
2018-08-30T04:53:43.993Z,19.00
2018-08-30T04:56:13.069Z,18.90
2018-08-30T04:58:42.018Z,18.90
2018-08-30T05:01:11.018Z,18.90
2018-08-30T05:03:39.964Z,18.90
2018-08-30T05:06:09.063Z,18.90
2018-08-30T05:08:38.019Z,18.90
2018-08-30T05:11:06.991Z,18.90
2018-08-30T05:13:36.806Z,18.90
2018-08-30T05:16:05.937Z,18.80
2018-08-30T05:18:34.905Z,18.80
2018-08-30T05:21:03.896Z,18.80
2018-08-30T05:23:32.832Z,18.80
2018-08-30T05:26:01.815Z,18.70
2018-08-30T05:28:31.210Z,18.80
2018-08-30T05:31:00.173Z,18.80
2018-08-30T05:33:29.142Z,18.70
2018-08-30T05:35:58.831Z,18.70
2018-08-30T05:38:27.869Z,18.70
2018-08-30T05:40:56.917Z,18.70
2018-08-30T05:43:25.857Z,18.60
2018-08-30T05:45:54.792Z,18.60
2018-08-30T05:48:23.807Z,18.60
2018-08-30T05:50:53.705Z,18.60
2018-08-30T05:53:22.649Z,18.70
2018-08-30T05:55:51.606Z,18.70
2018-08-30T05:58:20.587Z,18.60
2018-08-30T06:00:49.775Z,18.60
2018-08-30T06:03:18.960Z,18.60
2018-08-30T06:05:48.192Z,18.60
2018-08-30T06:08:17.417Z,18.60
2018-08-30T06:10:46.436Z,18.60
2018-08-30T06:13:15.449Z,18.60
2018-08-30T06:15:44.441Z,18.60
2018-08-30T06:18:13.606Z,18.50
2018-08-30T06:20:42.545Z,18.50
2018-08-30T06:23:11.573Z,18.50
2018-08-30T06:25:40.527Z,18.50
2018-08-30T06:28:09.625Z,18.50
2018-08-30T06:30:38.725Z,18.50
2018-08-30T06:33:08.213Z,18.60
2018-08-30T06:35:38.485Z,18.50
2018-08-30T06:38:07.487Z,18.50
2018-08-30T06:40:36.476Z,18.50
2018-08-30T06:43:05.407Z,18.50
2018-08-30T06:45:34.507Z,18.40
2018-08-30T06:48:04.234Z,18.40
2018-08-30T06:50:33.436Z,18.40
2018-08-30T06:53:02.445Z,18.40
2018-08-30T06:55:31.424Z,18.40
2018-08-30T06:58:00.380Z,18.50
2018-08-30T07:00:29.535Z,18.50
2018-08-30T07:02:58.509Z,18.50
2018-08-30T07:05:27.485Z,18.40
2018-08-30T07:07:56.478Z,18.40
2018-08-30T07:10:25.392Z,18.40
2018-08-30T07:12:54.347Z,18.40
2018-08-30T07:15:23.285Z,18.40
2018-08-30T07:17:52.362Z,18.30
2018-08-30T07:20:21.404Z,18.30
2018-08-30T07:22:50.361Z,18.30
2018-08-30T07:25:19.284Z,18.30
2018-08-30T07:27:48.293Z,18.30
2018-08-30T07:30:17.336Z,18.40
2018-08-30T07:32:46.289Z,18.40
2018-08-30T07:35:15.204Z,18.30
2018-08-30T07:37:46.080Z,18.20
2018-08-30T07:40:15.032Z,18.30
2018-08-30T07:42:43.992Z,18.30
2018-08-30T07:45:13.031Z,18.30
2018-08-30T07:47:42.012Z,18.30
2018-08-30T07:50:10.956Z,18.30
2018-08-30T07:52:39.934Z,18.30
2018-08-30T07:55:08.868Z,18.40
2018-08-30T07:57:37.821Z,18.30
2018-08-30T08:00:07.548Z,18.30
2018-08-30T08:02:36.481Z,18.30
2018-08-30T08:05:05.464Z,18.30
2018-08-30T08:07:34.446Z,18.30
2018-08-30T08:10:03.488Z,18.30
2018-08-30T08:12:33.167Z,18.30
2018-08-30T08:15:02.170Z,18.40
2018-08-30T08:17:32.236Z,18.40
2018-08-30T08:20:01.208Z,18.50
2018-08-30T08:22:30.164Z,18.40
2018-08-30T08:24:59.651Z,18.50
2018-08-30T08:27:28.586Z,18.50
2018-08-30T08:29:57.543Z,18.50
2018-08-30T08:32:26.510Z,18.50
2018-08-30T08:34:55.576Z,18.50
2018-08-30T08:37:24.611Z,18.60
2018-08-30T08:39:57.281Z,18.60
2018-08-30T08:42:26.232Z,18.60
2018-08-30T08:44:55.223Z,18.70
2018-08-30T08:47:24.206Z,18.80
2018-08-30T08:49:53.238Z,18.80
2018-08-30T08:52:22.190Z,18.80
2018-08-30T08:54:51.133Z,18.90
2018-08-30T08:57:20.052Z,19.00
2018-08-30T08:59:49.024Z,19.00
2018-08-30T09:02:17.958Z,19.10
2018-08-30T09:04:47.084Z,19.20
2018-08-30T09:07:16.147Z,19.20
2018-08-30T09:09:45.030Z,19.20
2018-08-30T09:12:14.004Z,19.20
2018-08-30T09:14:42.941Z,19.20
2018-08-30T09:17:12.980Z,19.20
2018-08-30T09:19:42.168Z,19.10
2018-08-30T09:22:11.228Z,19.10
2018-08-30T09:24:40.780Z,19.10
2018-08-30T09:27:10.435Z,19.10
2018-08-30T09:29:39.405Z,19.10
2018-08-30T09:32:08.449Z,19.10
2018-08-30T09:34:37.431Z,19.20
2018-08-30T09:37:06.444Z,19.20
2018-08-30T09:39:35.469Z,19.20
2018-08-30T09:42:04.438Z,19.20
2018-08-30T09:44:33.890Z,19.30
2018-08-30T09:47:02.835Z,19.40
2018-08-30T09:49:32.703Z,19.50
2018-08-30T09:52:01.621Z,19.50
2018-08-30T09:54:30.598Z,19.60
2018-08-30T09:56:59.796Z,19.60
2018-08-30T09:59:28.708Z,19.60
2018-08-30T10:02:02.194Z,19.60
2018-08-30T10:04:31.680Z,19.70
2018-08-30T10:07:00.619Z,19.70
2018-08-30T10:09:29.573Z,19.70
2018-08-30T10:11:58.549Z,19.70
2018-08-30T10:14:27.547Z,19.70
2018-08-30T10:16:56.496Z,19.70
2018-08-30T10:19:25.483Z,19.80
2018-08-30T10:21:54.449Z,19.80
2018-08-30T10:24:23.486Z,19.80
2018-08-30T10:26:52.430Z,19.90
2018-08-30T10:29:21.376Z,20.00
2018-08-30T10:31:50.340Z,20.00
2018-08-30T10:34:19.269Z,20.00
2018-08-30T10:36:48.412Z,19.90
2018-08-30T10:39:17.386Z,20.00
2018-08-30T10:41:47.097Z,20.00
2018-08-30T10:44:16.406Z,20.00
2018-08-30T10:46:45.371Z,20.00
2018-08-30T10:49:14.378Z,19.90
2018-08-30T10:51:43.733Z,19.90
2018-08-30T10:54:12.689Z,19.90
2018-08-30T10:56:41.664Z,19.90
2018-08-30T10:59:10.811Z,19.90
2018-08-30T11:01:41.441Z,19.80
2018-08-30T11:04:10.492Z,19.80
2018-08-30T11:06:40.650Z,19.80
2018-08-30T11:09:10.069Z,19.70
2018-08-30T11:11:40.058Z,19.70
2018-08-30T11:14:11.896Z,19.80
2018-08-30T11:16:40.831Z,19.80
2018-08-30T11:19:09.759Z,19.90
2018-08-30T11:21:38.712Z,19.90
2018-08-30T11:24:08.041Z,19.90
2018-08-30T11:26:37.004Z,19.90
2018-08-30T11:29:05.945Z,20.00
2018-08-30T11:31:34.964Z,19.90
2018-08-30T11:34:03.985Z,20.00
2018-08-30T11:36:33.037Z,19.90
2018-08-30T11:39:01.968Z,19.90
2018-08-30T11:41:31.057Z,19.90
2018-08-30T11:43:59.910Z,20.00
2018-08-30T11:46:28.881Z,19.90
2018-08-30T11:48:57.833Z,19.90
2018-08-30T11:51:26.844Z,19.90
2018-08-30T11:53:55.949Z,19.90
2018-08-30T11:56:24.969Z,20.00
2018-08-30T11:58:53.905Z,20.00
2018-08-30T12:01:22.873Z,20.10
2018-08-30T12:03:51.823Z,20.10
2018-08-30T12:06:20.796Z,20.20
2018-08-30T12:08:49.810Z,20.20
2018-08-30T12:11:20.780Z,20.30
2018-08-30T12:13:49.691Z,20.30
2018-08-30T12:16:18.633Z,20.40
2018-08-30T12:18:47.810Z,20.50
2018-08-30T12:21:16.748Z,20.70
2018-08-30T12:23:45.696Z,20.80
2018-08-30T12:26:15.422Z,21.00
2018-08-30T12:28:44.559Z,21.00
2018-08-30T12:31:13.406Z,21.10
2018-08-30T12:33:42.399Z,21.20
2018-08-30T12:36:11.387Z,21.20
2018-08-30T12:38:40.460Z,21.40
2018-08-30T12:41:09.539Z,21.50
2018-08-30T12:43:41.147Z,21.50
2018-08-30T12:46:10.039Z,21.50
2018-08-30T12:48:38.970Z,21.50
2018-08-30T12:51:08.147Z,21.50
2018-08-30T12:53:37.099Z,21.50
2018-08-30T12:56:08.498Z,21.60
2018-08-30T12:58:39.959Z,21.60
2018-08-30T13:01:09.274Z,21.60
2018-08-30T13:03:38.373Z,21.70
2018-08-30T13:06:07.603Z,21.70
2018-08-30T13:08:36.438Z,21.80
2018-08-30T13:11:05.215Z,21.80
2018-08-30T13:13:40.409Z,21.90
2018-08-30T13:16:09.423Z,21.80
2018-08-30T13:18:38.347Z,21.90
2018-08-30T13:21:07.487Z,21.90
2018-08-30T13:23:36.534Z,22.00
2018-08-30T13:26:06.186Z,22.00
2018-08-30T13:28:36.972Z,22.10
2018-08-30T13:31:06.100Z,22.00
2018-08-30T13:33:35.115Z,22.00
2018-08-30T13:36:04.329Z,22.10
2018-08-30T13:38:33.743Z,22.10
2018-08-30T13:41:03.026Z,22.20
2018-08-30T13:43:32.129Z,22.20
2018-08-30T13:46:00.998Z,22.20
2018-08-30T13:48:30.069Z,22.10
2018-08-30T13:50:58.921Z,22.10
2018-08-30T13:53:27.901Z,22.10
2018-08-30T13:55:57.103Z,22.10
2018-08-30T13:58:26.189Z,22.00
2018-08-30T14:00:55.280Z,22.10
2018-08-30T14:03:23.894Z,22.10
2018-08-30T14:05:52.869Z,22.00
2018-08-30T14:08:21.806Z,22.00
2018-08-30T14:10:50.949Z,21.90
2018-08-30T14:13:20.404Z,21.90
2018-08-30T14:15:49.035Z,21.80
2018-08-30T14:18:18.139Z,21.70
2018-08-30T14:20:47.120Z,21.60
2018-08-30T14:23:16.152Z,21.10
2018-08-30T14:25:45.179Z,20.70
2018-08-30T14:28:14.170Z,20.40
2018-08-30T14:30:43.005Z,20.10
2018-08-30T14:33:12.036Z,19.80
2018-08-30T14:35:40.971Z,19.70
2018-08-30T14:38:10.094Z,19.60
2018-08-30T14:40:40.089Z,19.50
2018-08-30T14:43:11.329Z,19.50
2018-08-30T14:45:41.212Z,19.40
2018-08-30T14:48:12.774Z,19.30
2018-08-30T14:50:42.846Z,19.30
2018-08-30T14:53:12.771Z,19.30
2018-08-30T14:55:41.961Z,19.30
2018-08-30T14:58:10.723Z,19.30
2018-08-30T15:00:39.944Z,19.40
2018-08-30T15:03:09.030Z,19.40
2018-08-30T15:05:38.034Z,19.30
2018-08-30T15:08:06.856Z,19.40
2018-08-30T15:10:35.875Z,19.40
2018-08-30T15:13:05.206Z,19.40
2018-08-30T15:15:34.139Z,19.40
2018-08-30T15:18:03.100Z,19.40
2018-08-30T15:20:32.031Z,19.50
2018-08-30T15:23:01.199Z,19.60
2018-08-30T15:25:30.410Z,19.60
2018-08-30T15:27:59.349Z,19.60
2018-08-30T15:30:28.307Z,19.60
2018-08-30T15:32:57.313Z,19.70
2018-08-30T15:35:26.863Z,19.60
2018-08-30T15:37:55.589Z,19.60
2018-08-30T15:40:24.544Z,19.70
2018-08-30T15:42:53.532Z,19.60
2018-08-30T15:45:23.001Z,19.60
2018-08-30T15:47:51.944Z,19.60
2018-08-30T15:50:21.008Z,19.60
2018-08-30T15:52:49.937Z,19.60
2018-08-30T15:55:18.882Z,19.60
2018-08-30T15:57:48.103Z,19.50
2018-08-30T16:00:17.496Z,19.50
2018-08-30T16:02:46.979Z,19.50
2018-08-30T16:05:16.238Z,19.60
2018-08-30T16:07:45.153Z,19.60
2018-08-30T16:10:14.775Z,19.60
2018-08-30T16:12:43.889Z,19.60
2018-08-30T16:15:13.135Z,19.60
2018-08-30T16:17:42.176Z,19.60
2018-08-30T16:20:11.083Z,19.60
2018-08-30T16:23:49.393Z,19.50
2018-08-30T16:26:18.385Z,19.40
2018-08-30T16:28:47.409Z,19.40
2018-08-30T16:31:16.350Z,19.40
2018-08-30T16:33:45.276Z,19.40
2018-08-30T16:36:14.221Z,19.40
2018-08-30T16:38:43.173Z,19.30
2018-08-30T16:41:12.160Z,19.30
2018-08-30T16:43:41.097Z,19.30
2018-08-30T16:46:10.068Z,19.20
2018-08-30T16:48:39.035Z,19.10
2018-08-30T16:51:08.193Z,19.00
2018-08-30T16:53:37.054Z,18.90
2018-08-30T16:56:06.079Z,18.90
2018-08-30T16:58:35.014Z,18.90
2018-08-30T17:01:03.992Z,18.90
2018-08-30T17:03:32.949Z,18.90
2018-08-30T17:06:01.953Z,18.80
2018-08-30T17:08:30.992Z,18.80
2018-08-30T17:10:59.861Z,18.70
2018-08-30T17:13:29.528Z,18.70
2018-08-30T17:15:58.543Z,18.70
2018-08-30T17:18:27.508Z,18.60
2018-08-30T17:20:57.077Z,18.60
2018-08-30T17:23:26.385Z,18.70
2018-08-30T17:25:55.514Z,18.70
2018-08-30T17:28:24.637Z,18.70
2018-08-30T17:30:55.262Z,18.60
2018-08-30T17:33:24.290Z,18.60
2018-08-30T17:35:53.281Z,18.70
2018-08-30T17:38:22.372Z,18.60
2018-08-30T17:40:51.898Z,18.60
2018-08-30T17:43:21.253Z,18.50
2018-08-30T17:45:50.476Z,18.50
2018-08-30T17:48:20.251Z,18.50
2018-08-30T17:50:49.428Z,18.40
2018-08-30T17:53:18.396Z,18.40
2018-08-30T17:55:47.434Z,18.40
2018-08-30T17:58:16.370Z,18.40
2018-08-30T18:00:45.386Z,18.40
2018-08-30T18:03:14.356Z,18.30
2018-08-30T18:05:43.403Z,18.30
2018-08-30T18:08:12.342Z,18.20
2018-08-30T18:10:41.287Z,18.20
2018-08-30T18:13:10.617Z,18.20
2018-08-30T18:15:39.709Z,18.20
2018-08-30T18:18:08.742Z,18.20
2018-08-30T18:20:37.709Z,18.10
2018-08-30T18:23:06.650Z,18.10
2018-08-30T18:25:35.633Z,18.10
2018-08-30T18:28:04.629Z,18.10
2018-08-30T18:30:34.897Z,18.10
2018-08-30T18:33:03.835Z,18.00
2018-08-30T18:35:32.775Z,18.00
2018-08-30T18:38:01.900Z,17.90
2018-08-30T18:40:30.915Z,17.80
2018-08-30T18:42:59.848Z,17.80
2018-08-30T18:45:29.814Z,17.80
2018-08-30T18:48:00.116Z,17.80
2018-08-30T18:50:29.325Z,17.80
2018-08-30T18:52:58.317Z,17.80
2018-08-30T18:55:27.257Z,17.80
2018-08-30T18:57:56.220Z,17.80
2018-08-30T19:00:25.244Z,17.70
2018-08-30T19:02:54.213Z,17.70
2018-08-30T19:05:23.145Z,17.60
2018-08-30T19:07:52.129Z,17.60
2018-08-30T19:10:21.081Z,17.60
2018-08-30T19:12:50.148Z,17.60
2018-08-30T19:15:24.425Z,17.60
2018-08-30T19:17:58.716Z,17.60
2018-08-30T19:20:27.764Z,17.60
2018-08-30T19:22:56.721Z,17.50
2018-08-30T19:25:26.229Z,17.50
2018-08-30T19:27:55.384Z,17.50
2018-08-30T19:30:26.278Z,17.60
2018-08-30T19:33:03.060Z,17.60
2018-08-30T19:35:37.209Z,17.60
2018-08-30T19:38:07.005Z,17.60
2018-08-30T19:40:41.416Z,17.60
2018-08-30T19:43:10.480Z,17.50
2018-08-30T19:45:39.529Z,17.50
2018-08-30T19:48:08.658Z,17.50
2018-08-30T19:50:37.631Z,17.50
2018-08-30T19:53:06.696Z,17.50
2018-08-30T19:55:35.674Z,17.50
2018-08-30T19:58:05.037Z,17.60
2018-08-30T20:00:34.383Z,17.50
2018-08-30T20:03:03.358Z,17.50
2018-08-30T20:05:32.318Z,17.60
2018-08-30T20:08:01.428Z,17.50
2018-08-30T20:10:31.641Z,17.50
2018-08-30T20:13:02.462Z,17.50
2018-08-30T20:15:31.398Z,17.50
2018-08-30T20:18:00.357Z,17.50
2018-08-30T20:20:29.445Z,17.50
2018-08-30T20:22:58.376Z,17.50
2018-08-30T20:25:27.313Z,17.50
2018-08-30T20:27:56.845Z,17.50
2018-08-30T20:30:25.861Z,17.50
2018-08-30T20:32:54.910Z,17.50
2018-08-30T20:35:24.017Z,17.50
2018-08-30T20:37:53.061Z,17.50
2018-08-30T20:40:23.278Z,17.50
2018-08-30T20:42:52.224Z,17.50
2018-08-30T20:45:21.174Z,17.50
2018-08-30T20:47:50.190Z,17.50
2018-08-30T20:50:19.857Z,17.50
2018-08-30T20:52:49.143Z,17.40
2018-08-30T20:55:18.381Z,17.40
2018-08-30T20:57:48.396Z,17.40
2018-08-30T21:00:17.371Z,17.40
2018-08-30T21:02:47.252Z,17.40
2018-08-30T21:05:16.283Z,17.40
2018-08-30T21:07:45.254Z,17.40
2018-08-30T21:10:15.261Z,17.40
2018-08-30T21:12:44.365Z,17.40
2018-08-30T21:15:13.313Z,17.30
2018-08-30T21:17:42.306Z,17.30
2018-08-30T21:20:11.317Z,17.30
2018-08-30T21:22:40.319Z,17.20
2018-08-30T21:25:09.249Z,17.20
2018-08-30T21:27:38.862Z,17.10
2018-08-30T21:30:07.960Z,17.10
2018-08-30T21:32:36.969Z,17.10
2018-08-30T21:35:05.896Z,17.10
2018-08-30T21:37:34.851Z,17.10
2018-08-30T21:40:03.803Z,17.10
2018-08-30T21:42:32.776Z,17.10
2018-08-30T21:45:01.738Z,17.10
2018-08-30T21:47:30.675Z,17.00
2018-08-30T21:49:59.633Z,17.00
2018-08-30T21:52:31.188Z,17.00
2018-08-30T21:55:00.183Z,17.00
2018-08-30T21:57:29.295Z,17.00
2018-08-30T21:59:58.276Z,16.90
2018-08-30T22:02:27.279Z,16.80
2018-08-30T22:04:56.182Z,16.80
2018-08-30T22:07:25.153Z,16.80
2018-08-30T22:09:54.209Z,16.80
2018-08-30T22:12:23.177Z,16.80
2018-08-30T22:14:52.144Z,16.70
2018-08-30T22:17:21.065Z,16.70
2018-08-30T22:19:50.029Z,16.70
2018-08-30T22:22:19.122Z,16.70
2018-08-30T22:24:48.086Z,16.70
2018-08-30T22:27:17.106Z,16.70
2018-08-30T22:29:46.100Z,16.70
2018-08-30T22:32:15.113Z,16.70
2018-08-30T22:34:44.084Z,16.60
2018-08-30T22:37:13.245Z,16.60
2018-08-30T22:39:42.237Z,16.50
2018-08-30T22:42:11.380Z,16.40
2018-08-30T22:44:40.392Z,16.40
2018-08-30T22:47:09.629Z,16.40
2018-08-30T22:49:38.585Z,16.30
2018-08-30T22:52:07.513Z,16.30
2018-08-30T22:54:36.496Z,16.30
2018-08-30T22:57:05.601Z,16.20
2018-08-30T22:59:34.549Z,16.10
2018-08-30T23:02:03.929Z,16.10
2018-08-30T23:04:32.908Z,16.10
2018-08-30T23:07:01.874Z,16.00
2018-08-30T23:09:30.928Z,16.00
2018-08-30T23:11:59.894Z,15.90
2018-08-30T23:14:28.856Z,15.90
2018-08-30T23:16:58.291Z,15.80
2018-08-30T23:19:27.285Z,15.70
2018-08-30T23:21:56.202Z,15.70
2018-08-30T23:24:25.161Z,15.70
2018-08-30T23:26:54.095Z,15.70
2018-08-30T23:29:23.056Z,15.60
2018-08-30T23:31:52.099Z,15.60
2018-08-30T23:34:21.061Z,15.60
2018-08-30T23:36:49.989Z,15.50
2018-08-30T23:39:18.944Z,15.40
2018-08-30T23:41:47.873Z,15.40
2018-08-30T23:44:16.877Z,15.30
2018-08-30T23:46:46.894Z,15.20
2018-08-30T23:49:15.904Z,15.20
2018-08-30T23:51:44.832Z,15.20
2018-08-30T23:54:13.777Z,15.00
2018-08-30T23:56:42.756Z,14.90
2018-08-30T23:59:23.119Z,14.90
